sensor_id;sensor_type;location;lat;lon;timestamp;P1;durP1;ratioP1;P2;durP2;ratioP2
10900;SDS011;5503;53.208;10.392;2022-07-18T00:00:36;7.32;;;3.00;;
10900;SDS011;5503;53.208;10.392;2022-07-18T00:03:03;6.63;;;2.70;;
10900;SDS011;5503;53.208;10.392;2022-07-18T00:05:30;5.87;;;2.70;;
10900;SDS011;5503;53.208;10.392;2022-07-18T00:07:59;6.65;;;2.97;;
10900;SDS011;5503;53.208;10.392;2022-07-18T00:10:26;7.20;;;3.00;;
10900;SDS011;5503;53.208;10.392;2022-07-18T00:12:53;11.32;;;3.20;;
10900;SDS011;5503;53.208;10.392;2022-07-18T00:15:20;5.75;;;2.90;;
10900;SDS011;5503;53.208;10.392;2022-07-18T00:17:47;7.20;;;2.73;;
10900;SDS011;5503;53.208;10.392;2022-07-18T00:20:15;7.32;;;3.47;;
10900;SDS011;5503;53.208;10.392;2022-07-18T00:22:42;8.05;;;3.00;;
10900;SDS011;5503;53.208;10.392;2022-07-18T00:25:10;6.50;;;2.80;;
10900;SDS011;5503;53.208;10.392;2022-07-18T00:27:37;6.63;;;3.20;;
10900;SDS011;5503;53.208;10.392;2022-07-18T00:30:04;9.30;;;3.70;;
10900;SDS011;5503;53.208;10.392;2022-07-18T00:32:33;8.30;;;2.83;;
10900;SDS011;5503;53.208;10.392;2022-07-18T00:35:00;7.07;;;3.08;;
10900;SDS011;5503;53.208;10.392;2022-07-18T00:37:27;6.68;;;3.50;;
10900;SDS011;5503;53.208;10.392;2022-07-18T00:39:54;6.93;;;3.25;;
10900;SDS011;5503;53.208;10.392;2022-07-18T00:42:23;6.57;;;3.37;;
10900;SDS011;5503;53.208;10.392;2022-07-18T00:44:52;8.07;;;3.20;;
10900;SDS011;5503;53.208;10.392;2022-07-18T00:47:19;8.00;;;3.28;;
10900;SDS011;5503;53.208;10.392;2022-07-18T00:49:47;7.35;;;3.25;;
10900;SDS011;5503;53.208;10.392;2022-07-18T00:52:14;7.13;;;3.22;;
10900;SDS011;5503;53.208;10.392;2022-07-18T00:54:41;6.23;;;3.23;;
10900;SDS011;5503;53.208;10.392;2022-07-18T00:57:08;5.97;;;2.97;;
10900;SDS011;5503;53.208;10.392;2022-07-18T00:59:38;7.18;;;3.15;;
10900;SDS011;5503;53.208;10.392;2022-07-18T01:02:24;6.18;;;2.90;;
10900;SDS011;5503;53.208;10.392;2022-07-18T01:04:51;5.93;;;3.20;;
10900;SDS011;5503;53.208;10.392;2022-07-18T01:07:18;6.80;;;3.20;;
10900;SDS011;5503;53.208;10.392;2022-07-18T01:09:46;7.50;;;3.50;;
10900;SDS011;5503;53.208;10.392;2022-07-18T01:12:13;6.20;;;3.35;;
10900;SDS011;5503;53.208;10.392;2022-07-18T01:14:42;6.72;;;3.45;;
10900;SDS011;5503;53.208;10.392;2022-07-18T01:17:15;5.80;;;2.85;;
10900;SDS011;5503;53.208;10.392;2022-07-18T01:19:46;7.00;;;3.00;;
10900;SDS011;5503;53.208;10.392;2022-07-18T01:22:16;5.47;;;3.08;;
10900;SDS011;5503;53.208;10.392;2022-07-18T01:24:45;7.53;;;3.00;;
10900;SDS011;5503;53.208;10.392;2022-07-18T01:27:13;6.03;;;3.40;;
10900;SDS011;5503;53.208;10.392;2022-07-18T01:29:41;6.50;;;3.30;;
10900;SDS011;5503;53.208;10.392;2022-07-18T01:32:08;6.60;;;3.40;;
10900;SDS011;5503;53.208;10.392;2022-07-18T01:34:35;5.55;;;2.83;;
10900;SDS011;5503;53.208;10.392;2022-07-18T01:37:03;6.97;;;3.50;;
10900;SDS011;5503;53.208;10.392;2022-07-18T01:39:32;8.27;;;3.20;;
10900;SDS011;5503;53.208;10.392;2022-07-18T01:42:00;8.48;;;3.42;;
10900;SDS011;5503;53.208;10.392;2022-07-18T01:44:28;6.20;;;3.17;;
10900;SDS011;5503;53.208;10.392;2022-07-18T01:46:55;6.85;;;3.53;;
10900;SDS011;5503;53.208;10.392;2022-07-18T01:49:22;6.82;;;3.45;;
10900;SDS011;5503;53.208;10.392;2022-07-18T01:51:51;7.40;;;3.35;;
10900;SDS011;5503;53.208;10.392;2022-07-18T01:54:19;8.30;;;4.18;;
10900;SDS011;5503;53.208;10.392;2022-07-18T01:56:48;7.80;;;3.73;;
10900;SDS011;5503;53.208;10.392;2022-07-18T01:59:15;8.48;;;3.10;;
10900;SDS011;5503;53.208;10.392;2022-07-18T02:01:42;5.95;;;3.15;;
10900;SDS011;5503;53.208;10.392;2022-07-18T02:04:09;7.35;;;3.50;;
10900;SDS011;5503;53.208;10.392;2022-07-18T02:06:37;7.85;;;3.38;;
10900;SDS011;5503;53.208;10.392;2022-07-18T02:09:04;7.60;;;3.53;;
10900;SDS011;5503;53.208;10.392;2022-07-18T02:11:32;7.55;;;3.58;;
10900;SDS011;5503;53.208;10.392;2022-07-18T02:14:00;8.27;;;3.42;;
10900;SDS011;5503;53.208;10.392;2022-07-18T02:16:28;7.18;;;3.25;;
10900;SDS011;5503;53.208;10.392;2022-07-18T02:18:55;7.68;;;3.75;;
10900;SDS011;5503;53.208;10.392;2022-07-18T02:21:22;6.37;;;3.50;;
10900;SDS011;5503;53.208;10.392;2022-07-18T02:23:49;6.38;;;3.05;;
10900;SDS011;5503;53.208;10.392;2022-07-18T02:26:17;6.72;;;3.60;;
10900;SDS011;5503;53.208;10.392;2022-07-18T02:28:44;8.07;;;3.58;;
10900;SDS011;5503;53.208;10.392;2022-07-18T02:31:12;7.97;;;3.95;;
10900;SDS011;5503;53.208;10.392;2022-07-18T02:33:39;7.00;;;4.00;;
10900;SDS011;5503;53.208;10.392;2022-07-18T02:36:06;6.18;;;3.58;;
10900;SDS011;5503;53.208;10.392;2022-07-18T02:38:33;6.30;;;3.40;;
10900;SDS011;5503;53.208;10.392;2022-07-18T02:41:01;6.95;;;3.28;;
10900;SDS011;5503;53.208;10.392;2022-07-18T02:43:28;7.97;;;3.42;;
10900;SDS011;5503;53.208;10.392;2022-07-18T02:45:55;8.77;;;3.60;;
10900;SDS011;5503;53.208;10.392;2022-07-18T02:48:24;6.93;;;3.30;;
10900;SDS011;5503;53.208;10.392;2022-07-18T02:50:50;6.35;;;3.20;;
10900;SDS011;5503;53.208;10.392;2022-07-18T02:53:18;7.00;;;3.30;;
10900;SDS011;5503;53.208;10.392;2022-07-18T02:55:48;6.95;;;3.40;;
10900;SDS011;5503;53.208;10.392;2022-07-18T02:58:15;7.53;;;3.70;;
10900;SDS011;5503;53.208;10.392;2022-07-18T03:00:42;8.57;;;3.50;;
10900;SDS011;5503;53.208;10.392;2022-07-18T03:03:09;6.55;;;3.53;;
10900;SDS011;5503;53.208;10.392;2022-07-18T03:05:38;6.50;;;3.30;;
10900;SDS011;5503;53.208;10.392;2022-07-18T03:08:05;9.68;;;3.58;;
10900;SDS011;5503;53.208;10.392;2022-07-18T03:10:32;7.67;;;3.60;;
10900;SDS011;5503;53.208;10.392;2022-07-18T03:12:59;7.03;;;3.50;;
10900;SDS011;5503;53.208;10.392;2022-07-18T03:15:26;6.95;;;3.22;;
10900;SDS011;5503;53.208;10.392;2022-07-18T03:17:54;6.50;;;3.60;;
10900;SDS011;5503;53.208;10.392;2022-07-18T03:20:21;7.30;;;3.47;;
10900;SDS011;5503;53.208;10.392;2022-07-18T03:22:49;6.53;;;3.20;;
10900;SDS011;5503;53.208;10.392;2022-07-18T03:25:16;7.47;;;3.80;;
10900;SDS011;5503;53.208;10.392;2022-07-18T03:27:44;6.95;;;3.97;;
10900;SDS011;5503;53.208;10.392;2022-07-18T03:30:11;7.68;;;3.80;;
10900;SDS011;5503;53.208;10.392;2022-07-18T03:32:38;9.13;;;3.72;;
10900;SDS011;5503;53.208;10.392;2022-07-18T03:35:06;7.93;;;3.90;;
10900;SDS011;5503;53.208;10.392;2022-07-18T03:37:33;6.35;;;3.30;;
10900;SDS011;5503;53.208;10.392;2022-07-18T03:40:02;8.48;;;3.65;;
10900;SDS011;5503;53.208;10.392;2022-07-18T03:42:29;7.00;;;3.30;;
10900;SDS011;5503;53.208;10.392;2022-07-18T03:44:56;6.63;;;3.45;;
10900;SDS011;5503;53.208;10.392;2022-07-18T03:47:23;6.80;;;3.77;;
10900;SDS011;5503;53.208;10.392;2022-07-18T03:49:50;6.40;;;3.35;;
10900;SDS011;5503;53.208;10.392;2022-07-18T03:52:17;6.18;;;3.55;;
10900;SDS011;5503;53.208;10.392;2022-07-18T03:54:45;6.35;;;3.40;;
10900;SDS011;5503;53.208;10.392;2022-07-18T03:57:14;8.65;;;4.53;;
10900;SDS011;5503;53.208;10.392;2022-07-18T03:59:41;9.30;;;4.30;;
10900;SDS011;5503;53.208;10.392;2022-07-18T04:02:08;6.82;;;3.60;;
10900;SDS011;5503;53.208;10.392;2022-07-18T04:04:35;7.15;;;3.40;;
10900;SDS011;5503;53.208;10.392;2022-07-18T04:07:02;7.82;;;3.80;;
10900;SDS011;5503;53.208;10.392;2022-07-18T04:09:29;9.25;;;3.85;;
10900;SDS011;5503;53.208;10.392;2022-07-18T04:11:56;6.80;;;3.37;;
10900;SDS011;5503;53.208;10.392;2022-07-18T04:14:25;8.73;;;3.40;;
10900;SDS011;5503;53.208;10.392;2022-07-18T04:16:52;7.95;;;3.42;;
10900;SDS011;5503;53.208;10.392;2022-07-18T04:19:19;7.50;;;3.78;;
10900;SDS011;5503;53.208;10.392;2022-07-18T04:21:48;6.75;;;3.17;;
10900;SDS011;5503;53.208;10.392;2022-07-18T04:24:15;7.17;;;3.60;;
10900;SDS011;5503;53.208;10.392;2022-07-18T04:26:42;9.48;;;3.60;;
10900;SDS011;5503;53.208;10.392;2022-07-18T04:29:09;6.35;;;3.40;;
10900;SDS011;5503;53.208;10.392;2022-07-18T04:31:38;6.50;;;3.47;;
10900;SDS011;5503;53.208;10.392;2022-07-18T04:34:05;7.82;;;3.58;;
10900;SDS011;5503;53.208;10.392;2022-07-18T04:36:32;8.33;;;3.70;;
10900;SDS011;5503;53.208;10.392;2022-07-18T04:38:59;6.93;;;3.55;;
10900;SDS011;5503;53.208;10.392;2022-07-18T04:41:26;8.00;;;3.60;;
10900;SDS011;5503;53.208;10.392;2022-07-18T04:43:53;7.35;;;3.40;;
10900;SDS011;5503;53.208;10.392;2022-07-18T04:46:20;8.15;;;3.63;;
10900;SDS011;5503;53.208;10.392;2022-07-18T04:48:49;10.03;;;3.80;;
10900;SDS011;5503;53.208;10.392;2022-07-18T04:51:16;9.63;;;3.63;;
10900;SDS011;5503;53.208;10.392;2022-07-18T04:53:43;6.85;;;3.55;;
10900;SDS011;5503;53.208;10.392;2022-07-18T04:56:10;9.98;;;3.80;;
10900;SDS011;5503;53.208;10.392;2022-07-18T04:58:43;7.00;;;3.05;;
10900;SDS011;5503;53.208;10.392;2022-07-18T05:01:25;6.50;;;3.20;;
10900;SDS011;5503;53.208;10.392;2022-07-18T05:03:53;8.80;;;3.75;;
10900;SDS011;5503;53.208;10.392;2022-07-18T05:06:20;6.22;;;3.35;;
10900;SDS011;5503;53.208;10.392;2022-07-18T05:08:47;7.82;;;3.60;;
10900;SDS011;5503;53.208;10.392;2022-07-18T05:11:15;6.60;;;3.28;;
10900;SDS011;5503;53.208;10.392;2022-07-18T05:13:42;6.80;;;3.30;;
10900;SDS011;5503;53.208;10.392;2022-07-18T05:16:09;7.30;;;3.42;;
10900;SDS011;5503;53.208;10.392;2022-07-18T05:18:36;7.18;;;3.50;;
10900;SDS011;5503;53.208;10.392;2022-07-18T05:21:05;9.52;;;3.50;;
10900;SDS011;5503;53.208;10.392;2022-07-18T05:23:32;9.57;;;3.85;;
10900;SDS011;5503;53.208;10.392;2022-07-18T05:25:59;9.60;;;3.70;;
10900;SDS011;5503;53.208;10.392;2022-07-18T05:28:26;6.85;;;3.55;;
10900;SDS011;5503;53.208;10.392;2022-07-18T05:30:53;7.63;;;3.13;;
10900;SDS011;5503;53.208;10.392;2022-07-18T05:33:20;7.05;;;3.65;;
10900;SDS011;5503;53.208;10.392;2022-07-18T05:35:48;6.85;;;3.10;;
10900;SDS011;5503;53.208;10.392;2022-07-18T05:38:16;7.87;;;3.27;;
10900;SDS011;5503;53.208;10.392;2022-07-18T05:40:43;6.43;;;3.28;;
10900;SDS011;5503;53.208;10.392;2022-07-18T05:43:10;7.10;;;3.45;;
10900;SDS011;5503;53.208;10.392;2022-07-18T05:45:38;7.07;;;3.03;;
10900;SDS011;5503;53.208;10.392;2022-07-18T05:48:05;6.53;;;3.22;;
10900;SDS011;5503;53.208;10.392;2022-07-18T05:50:33;8.47;;;3.20;;
10900;SDS011;5503;53.208;10.392;2022-07-18T05:53:00;7.50;;;2.83;;
10900;SDS011;5503;53.208;10.392;2022-07-18T05:55:28;6.63;;;2.92;;
10900;SDS011;5503;53.208;10.392;2022-07-18T05:57:55;5.50;;;2.80;;
10900;SDS011;5503;53.208;10.392;2022-07-18T06:00:22;7.35;;;3.00;;
10900;SDS011;5503;53.208;10.392;2022-07-18T06:02:50;6.07;;;2.80;;
10900;SDS011;5503;53.208;10.392;2022-07-18T06:05:17;6.00;;;2.60;;
10900;SDS011;5503;53.208;10.392;2022-07-18T06:07:44;7.22;;;3.20;;
10900;SDS011;5503;53.208;10.392;2022-07-18T06:10:12;7.85;;;2.88;;
10900;SDS011;5503;53.208;10.392;2022-07-18T06:12:40;8.20;;;3.15;;
10900;SDS011;5503;53.208;10.392;2022-07-18T06:15:07;7.03;;;2.80;;
10900;SDS011;5503;53.208;10.392;2022-07-18T06:17:35;5.47;;;2.63;;
10900;SDS011;5503;53.208;10.392;2022-07-18T06:20:02;7.55;;;3.08;;
10900;SDS011;5503;53.208;10.392;2022-07-18T06:22:32;5.43;;;2.67;;
10900;SDS011;5503;53.208;10.392;2022-07-18T06:25:00;7.40;;;3.33;;
10900;SDS011;5503;53.208;10.392;2022-07-18T06:27:27;7.37;;;2.97;;
10900;SDS011;5503;53.208;10.392;2022-07-18T06:29:56;6.38;;;3.00;;
10900;SDS011;5503;53.208;10.392;2022-07-18T06:32:24;7.18;;;2.60;;
10900;SDS011;5503;53.208;10.392;2022-07-18T06:34:51;5.47;;;2.53;;
10900;SDS011;5503;53.208;10.392;2022-07-18T06:37:18;5.93;;;2.42;;
10900;SDS011;5503;53.208;10.392;2022-07-18T06:39:45;7.97;;;2.80;;
10900;SDS011;5503;53.208;10.392;2022-07-18T06:42:12;5.93;;;2.78;;
10900;SDS011;5503;53.208;10.392;2022-07-18T06:44:40;6.57;;;2.65;;
10900;SDS011;5503;53.208;10.392;2022-07-18T06:47:08;7.68;;;2.42;;
10900;SDS011;5503;53.208;10.392;2022-07-18T06:49:35;5.70;;;2.60;;
10900;SDS011;5503;53.208;10.392;2022-07-18T06:52:03;5.77;;;2.63;;
10900;SDS011;5503;53.208;10.392;2022-07-18T06:54:30;7.03;;;2.30;;
10900;SDS011;5503;53.208;10.392;2022-07-18T06:57:00;7.63;;;2.25;;
10900;SDS011;5503;53.208;10.392;2022-07-18T06:59:32;7.32;;;2.50;;
10900;SDS011;5503;53.208;10.392;2022-07-18T07:01:59;4.43;;;2.03;;
10900;SDS011;5503;53.208;10.392;2022-07-18T07:04:27;7.80;;;2.40;;
10900;SDS011;5503;53.208;10.392;2022-07-18T07:06:54;5.03;;;2.25;;
10900;SDS011;5503;53.208;10.392;2022-07-18T07:09:21;5.65;;;2.45;;
10900;SDS011;5503;53.208;10.392;2022-07-18T07:11:49;5.90;;;2.28;;
10900;SDS011;5503;53.208;10.392;2022-07-18T07:14:16;4.72;;;2.20;;
10900;SDS011;5503;53.208;10.392;2022-07-18T07:16:43;6.83;;;2.27;;
10900;SDS011;5503;53.208;10.392;2022-07-18T07:19:10;5.28;;;2.42;;
10900;SDS011;5503;53.208;10.392;2022-07-18T07:21:39;6.75;;;2.30;;
10900;SDS011;5503;53.208;10.392;2022-07-18T07:24:06;5.78;;;2.25;;
10900;SDS011;5503;53.208;10.392;2022-07-18T07:26:33;4.63;;;2.00;;
10900;SDS011;5503;53.208;10.392;2022-07-18T07:29:00;7.50;;;2.00;;
10900;SDS011;5503;53.208;10.392;2022-07-18T07:31:28;7.70;;;2.42;;
10900;SDS011;5503;53.208;10.392;2022-07-18T07:33:55;4.90;;;2.22;;
10900;SDS011;5503;53.208;10.392;2022-07-18T07:36:22;7.22;;;2.55;;
10900;SDS011;5503;53.208;10.392;2022-07-18T07:38:51;7.28;;;2.35;;
10900;SDS011;5503;53.208;10.392;2022-07-18T07:41:18;7.40;;;2.50;;
10900;SDS011;5503;53.208;10.392;2022-07-18T07:43:45;8.40;;;2.90;;
10900;SDS011;5503;53.208;10.392;2022-07-18T07:46:13;6.15;;;2.60;;
10900;SDS011;5503;53.208;10.392;2022-07-18T07:48:40;6.40;;;2.90;;
10900;SDS011;5503;53.208;10.392;2022-07-18T07:51:08;5.68;;;2.72;;
10900;SDS011;5503;53.208;10.392;2022-07-18T07:53:35;9.23;;;3.30;;
10900;SDS011;5503;53.208;10.392;2022-07-18T07:56:04;8.20;;;2.97;;
10900;SDS011;5503;53.208;10.392;2022-07-18T07:58:31;7.75;;;2.85;;
10900;SDS011;5503;53.208;10.392;2022-07-18T08:00:59;7.72;;;3.00;;
10900;SDS011;5503;53.208;10.392;2022-07-18T08:03:26;8.75;;;2.72;;
10900;SDS011;5503;53.208;10.392;2022-07-18T08:05:53;6.50;;;2.73;;
10900;SDS011;5503;53.208;10.392;2022-07-18T08:08:20;7.10;;;2.97;;
10900;SDS011;5503;53.208;10.392;2022-07-18T08:10:47;6.80;;;3.08;;
10900;SDS011;5503;53.208;10.392;2022-07-18T08:13:16;8.48;;;3.33;;
10900;SDS011;5503;53.208;10.392;2022-07-18T08:15:43;7.82;;;3.25;;
10900;SDS011;5503;53.208;10.392;2022-07-18T08:18:10;10.47;;;3.70;;
10900;SDS011;5503;53.208;10.392;2022-07-18T08:20:38;9.10;;;3.53;;
10900;SDS011;5503;53.208;10.392;2022-07-18T08:23:06;7.28;;;3.25;;
10900;SDS011;5503;53.208;10.392;2022-07-18T08:25:37;6.47;;;3.00;;
10900;SDS011;5503;53.208;10.392;2022-07-18T08:28:05;6.38;;;3.10;;
10900;SDS011;5503;53.208;10.392;2022-07-18T08:30:36;7.17;;;2.83;;
10900;SDS011;5503;53.208;10.392;2022-07-18T08:33:03;8.10;;;3.35;;
10900;SDS011;5503;53.208;10.392;2022-07-18T08:35:31;7.20;;;3.03;;
10900;SDS011;5503;53.208;10.392;2022-07-18T08:37:58;6.68;;;2.80;;
10900;SDS011;5503;53.208;10.392;2022-07-18T08:40:26;8.07;;;3.30;;
10900;SDS011;5503;53.208;10.392;2022-07-18T08:42:54;7.67;;;2.80;;
10900;SDS011;5503;53.208;10.392;2022-07-18T08:45:23;6.95;;;2.80;;
10900;SDS011;5503;53.208;10.392;2022-07-18T08:47:52;6.93;;;2.67;;
10900;SDS011;5503;53.208;10.392;2022-07-18T08:50:19;7.70;;;2.85;;
10900;SDS011;5503;53.208;10.392;2022-07-18T08:52:46;7.18;;;3.20;;
10900;SDS011;5503;53.208;10.392;2022-07-18T08:55:14;8.60;;;3.23;;
10900;SDS011;5503;53.208;10.392;2022-07-18T08:57:41;7.68;;;2.85;;
10900;SDS011;5503;53.208;10.392;2022-07-18T09:00:09;8.13;;;2.95;;
10900;SDS011;5503;53.208;10.392;2022-07-18T09:02:37;8.05;;;2.88;;
10900;SDS011;5503;53.208;10.392;2022-07-18T09:05:06;9.98;;;3.00;;
10900;SDS011;5503;53.208;10.392;2022-07-18T09:07:44;6.93;;;3.10;;
10900;SDS011;5503;53.208;10.392;2022-07-18T09:10:11;7.45;;;3.05;;
10900;SDS011;5503;53.208;10.392;2022-07-18T09:12:38;8.00;;;3.60;;
10900;SDS011;5503;53.208;10.392;2022-07-18T09:15:20;6.88;;;3.30;;
10900;SDS011;5503;53.208;10.392;2022-07-18T09:17:49;5.90;;;2.92;;
10900;SDS011;5503;53.208;10.392;2022-07-18T09:20:17;6.97;;;3.10;;
10900;SDS011;5503;53.208;10.392;2022-07-18T09:22:45;7.43;;;3.47;;
10900;SDS011;5503;53.208;10.392;2022-07-18T09:25:14;8.98;;;3.45;;
10900;SDS011;5503;53.208;10.392;2022-07-18T09:27:44;8.25;;;3.40;;
10900;SDS011;5503;53.208;10.392;2022-07-18T09:30:16;8.63;;;3.47;;
10900;SDS011;5503;53.208;10.392;2022-07-18T09:32:46;7.70;;;3.30;;
10900;SDS011;5503;53.208;10.392;2022-07-18T09:35:18;8.20;;;3.42;;
10900;SDS011;5503;53.208;10.392;2022-07-18T09:37:56;6.22;;;3.08;;
10900;SDS011;5503;53.208;10.392;2022-07-18T09:40:27;8.25;;;3.28;;
10900;SDS011;5503;53.208;10.392;2022-07-18T09:42:56;7.50;;;3.40;;
10900;SDS011;5503;53.208;10.392;2022-07-18T09:45:25;7.90;;;3.50;;
10900;SDS011;5503;53.208;10.392;2022-07-18T09:47:54;6.40;;;2.70;;
10900;SDS011;5503;53.208;10.392;2022-07-18T09:50:27;7.00;;;3.05;;
10900;SDS011;5503;53.208;10.392;2022-07-18T09:53:02;9.32;;;3.25;;
10900;SDS011;5503;53.208;10.392;2022-07-18T09:55:41;6.75;;;3.00;;
10900;SDS011;5503;53.208;10.392;2022-07-18T09:58:15;9.53;;;3.70;;
10900;SDS011;5503;53.208;10.392;2022-07-18T10:00:44;8.23;;;3.00;;
10900;SDS011;5503;53.208;10.392;2022-07-18T10:03:12;6.85;;;2.83;;
10900;SDS011;5503;53.208;10.392;2022-07-18T10:05:41;8.35;;;2.88;;
10900;SDS011;5503;53.208;10.392;2022-07-18T10:08:11;7.97;;;3.00;;
10900;SDS011;5503;53.208;10.392;2022-07-18T10:10:41;5.93;;;2.67;;
10900;SDS011;5503;53.208;10.392;2022-07-18T10:13:09;5.40;;;2.63;;
10900;SDS011;5503;53.208;10.392;2022-07-18T10:15:37;5.47;;;2.60;;
10900;SDS011;5503;53.208;10.392;2022-07-18T10:18:08;7.10;;;2.80;;
10900;SDS011;5503;53.208;10.392;2022-07-18T10:20:37;6.40;;;2.65;;
10900;SDS011;5503;53.208;10.392;2022-07-18T10:23:08;6.90;;;2.87;;
10900;SDS011;5503;53.208;10.392;2022-07-18T10:25:39;6.97;;;2.88;;
10900;SDS011;5503;53.208;10.392;2022-07-18T10:28:08;5.45;;;2.60;;
10900;SDS011;5503;53.208;10.392;2022-07-18T10:30:44;8.27;;;2.92;;
10900;SDS011;5503;53.208;10.392;2022-07-18T10:36:10;8.20;;;2.93;;
10900;SDS011;5503;53.208;10.392;2022-07-18T10:39:02;7.28;;;3.15;;
10900;SDS011;5503;53.208;10.392;2022-07-18T10:41:31;8.30;;;2.53;;
10900;SDS011;5503;53.208;10.392;2022-07-18T10:44:03;6.18;;;2.70;;
10900;SDS011;5503;53.208;10.392;2022-07-18T10:47:06;6.65;;;2.67;;
10900;SDS011;5503;53.208;10.392;2022-07-18T10:52:58;9.93;;;2.85;;
10900;SDS011;5503;53.208;10.392;2022-07-18T10:55:35;7.30;;;2.60;;
10900;SDS011;5503;53.208;10.392;2022-07-18T10:58:15;5.97;;;2.67;;
10900;SDS011;5503;53.208;10.392;2022-07-18T11:00:43;6.05;;;2.90;;
10900;SDS011;5503;53.208;10.392;2022-07-18T11:03:15;6.03;;;2.60;;
10900;SDS011;5503;53.208;10.392;2022-07-18T11:05:44;7.65;;;2.42;;
10900;SDS011;5503;53.208;10.392;2022-07-18T11:08:18;8.65;;;2.60;;
10900;SDS011;5503;53.208;10.392;2022-07-18T11:13:38;5.00;;;2.22;;
10900;SDS011;5503;53.208;10.392;2022-07-18T11:16:10;5.30;;;2.30;;
10900;SDS011;5503;53.208;10.392;2022-07-18T11:21:38;5.43;;;2.17;;
10900;SDS011;5503;53.208;10.392;2022-07-18T11:24:07;5.40;;;2.60;;
10900;SDS011;5503;53.208;10.392;2022-07-18T11:26:38;7.47;;;2.53;;
10900;SDS011;5503;53.208;10.392;2022-07-18T11:29:11;5.57;;;2.50;;
10900;SDS011;5503;53.208;10.392;2022-07-18T11:31:42;5.80;;;2.47;;
10900;SDS011;5503;53.208;10.392;2022-07-18T11:34:16;5.57;;;2.33;;
10900;SDS011;5503;53.208;10.392;2022-07-18T11:36:44;5.57;;;2.08;;
10900;SDS011;5503;53.208;10.392;2022-07-18T11:39:16;6.82;;;3.00;;
10900;SDS011;5503;53.208;10.392;2022-07-18T11:41:58;5.93;;;2.60;;
10900;SDS011;5503;53.208;10.392;2022-07-18T11:44:27;6.60;;;2.42;;
10900;SDS011;5503;53.208;10.392;2022-07-18T11:47:01;6.15;;;2.65;;
10900;SDS011;5503;53.208;10.392;2022-07-18T11:49:29;6.00;;;2.47;;
10900;SDS011;5503;53.208;10.392;2022-07-18T11:51:57;6.93;;;2.30;;
10900;SDS011;5503;53.208;10.392;2022-07-18T11:54:27;6.87;;;2.40;;
10900;SDS011;5503;53.208;10.392;2022-07-18T11:57:06;7.88;;;2.40;;
10900;SDS011;5503;53.208;10.392;2022-07-18T11:59:37;5.35;;;2.80;;
10900;SDS011;5503;53.208;10.392;2022-07-18T12:02:06;6.72;;;2.65;;
10900;SDS011;5503;53.208;10.392;2022-07-18T12:04:38;6.53;;;2.65;;
10900;SDS011;5503;53.208;10.392;2022-07-18T12:07:13;6.63;;;2.03;;
10900;SDS011;5503;53.208;10.392;2022-07-18T12:09:42;6.50;;;2.05;;
10900;SDS011;5503;53.208;10.392;2022-07-18T12:12:11;6.28;;;2.13;;
10900;SDS011;5503;53.208;10.392;2022-07-18T12:14:39;6.05;;;2.10;;
10900;SDS011;5503;53.208;10.392;2022-07-18T12:17:06;5.90;;;2.10;;
10900;SDS011;5503;53.208;10.392;2022-07-18T12:19:34;5.87;;;2.30;;
10900;SDS011;5503;53.208;10.392;2022-07-18T12:22:07;6.75;;;2.10;;
10900;SDS011;5503;53.208;10.392;2022-07-18T12:24:36;6.90;;;2.42;;
10900;SDS011;5503;53.208;10.392;2022-07-18T12:27:12;5.00;;;1.98;;
10900;SDS011;5503;53.208;10.392;2022-07-18T12:32:39;6.00;;;2.20;;
10900;SDS011;5503;53.208;10.392;2022-07-18T12:35:08;6.13;;;2.00;;
10900;SDS011;5503;53.208;10.392;2022-07-18T12:37:36;5.88;;;2.00;;
10900;SDS011;5503;53.208;10.392;2022-07-18T12:40:04;4.80;;;1.98;;
10900;SDS011;5503;53.208;10.392;2022-07-18T12:42:37;5.88;;;1.83;;
10900;SDS011;5503;53.208;10.392;2022-07-18T12:45:08;6.47;;;1.80;;
10900;SDS011;5503;53.208;10.392;2022-07-18T12:47:42;5.93;;;1.77;;
10900;SDS011;5503;53.208;10.392;2022-07-18T12:50:09;5.25;;;1.65;;
10900;SDS011;5503;53.208;10.392;2022-07-18T12:52:36;5.88;;;1.90;;
10900;SDS011;5503;53.208;10.392;2022-07-18T12:55:04;6.40;;;1.73;;
10900;SDS011;5503;53.208;10.392;2022-07-18T12:57:31;4.93;;;1.80;;
10900;SDS011;5503;53.208;10.392;2022-07-18T13:00:00;5.20;;;1.90;;
10900;SDS011;5503;53.208;10.392;2022-07-18T13:02:27;6.90;;;1.70;;
10900;SDS011;5503;53.208;10.392;2022-07-18T13:04:54;6.43;;;1.80;;
10900;SDS011;5503;53.208;10.392;2022-07-18T13:07:21;6.65;;;1.75;;
10900;SDS011;5503;53.208;10.392;2022-07-18T13:09:48;4.87;;;1.50;;
10900;SDS011;5503;53.208;10.392;2022-07-18T13:12:15;6.20;;;1.40;;
10900;SDS011;5503;53.208;10.392;2022-07-18T13:14:42;6.32;;;1.85;;
10900;SDS011;5503;53.208;10.392;2022-07-18T13:17:11;5.57;;;1.55;;
10900;SDS011;5503;53.208;10.392;2022-07-18T13:19:38;4.78;;;1.80;;
10900;SDS011;5503;53.208;10.392;2022-07-18T13:22:06;5.93;;;1.80;;
10900;SDS011;5503;53.208;10.392;2022-07-18T13:24:33;6.57;;;1.77;;
10900;SDS011;5503;53.208;10.392;2022-07-18T13:27:02;3.95;;;1.10;;
10900;SDS011;5503;53.208;10.392;2022-07-18T13:29:29;5.85;;;1.58;;
10900;SDS011;5503;53.208;10.392;2022-07-18T13:31:56;4.82;;;1.30;;
10900;SDS011;5503;53.208;10.392;2022-07-18T13:34:24;10.97;;;1.30;;
10900;SDS011;5503;53.208;10.392;2022-07-18T13:36:51;4.68;;;1.45;;
10900;SDS011;5503;53.208;10.392;2022-07-18T13:39:20;5.93;;;1.45;;
10900;SDS011;5503;53.208;10.392;2022-07-18T13:41:47;4.13;;;1.38;;
10900;SDS011;5503;53.208;10.392;2022-07-18T13:44:15;4.70;;;1.27;;
10900;SDS011;5503;53.208;10.392;2022-07-18T13:46:42;3.90;;;1.00;;
10900;SDS011;5503;53.208;10.392;2022-07-18T13:49:10;3.70;;;1.30;;
10900;SDS011;5503;53.208;10.392;2022-07-18T13:51:38;4.35;;;1.15;;
10900;SDS011;5503;53.208;10.392;2022-07-18T13:54:05;4.72;;;1.27;;
10900;SDS011;5503;53.208;10.392;2022-07-18T13:56:33;4.60;;;1.40;;
10900;SDS011;5503;53.208;10.392;2022-07-18T13:59:00;4.47;;;1.17;;
10900;SDS011;5503;53.208;10.392;2022-07-18T14:01:27;4.10;;;1.52;;
10900;SDS011;5503;53.208;10.392;2022-07-18T14:03:54;4.50;;;1.52;;
10900;SDS011;5503;53.208;10.392;2022-07-18T14:06:21;7.30;;;1.35;;
10900;SDS011;5503;53.208;10.392;2022-07-18T14:08:50;5.13;;;1.40;;
10900;SDS011;5503;53.208;10.392;2022-07-18T14:11:17;3.67;;;1.23;;
10900;SDS011;5503;53.208;10.392;2022-07-18T14:13:44;4.15;;;1.17;;
10900;SDS011;5503;53.208;10.392;2022-07-18T14:16:12;5.93;;;1.48;;
10900;SDS011;5503;53.208;10.392;2022-07-18T14:18:39;5.05;;;1.30;;
10900;SDS011;5503;53.208;10.392;2022-07-18T14:21:06;4.40;;;1.42;;
10900;SDS011;5503;53.208;10.392;2022-07-18T14:23:33;4.67;;;1.43;;
10900;SDS011;5503;53.208;10.392;2022-07-18T14:26:02;5.53;;;1.55;;
10900;SDS011;5503;53.208;10.392;2022-07-18T14:28:29;4.05;;;1.48;;
10900;SDS011;5503;53.208;10.392;2022-07-18T14:30:56;4.82;;;1.38;;
10900;SDS011;5503;53.208;10.392;2022-07-18T14:33:23;4.75;;;1.30;;
10900;SDS011;5503;53.208;10.392;2022-07-18T14:35:50;7.60;;;1.53;;
10900;SDS011;5503;53.208;10.392;2022-07-18T14:38:17;6.38;;;1.42;;
10900;SDS011;5503;53.208;10.392;2022-07-18T14:40:44;5.50;;;1.40;;
10900;SDS011;5503;53.208;10.392;2022-07-18T14:43:13;4.40;;;1.60;;
10900;SDS011;5503;53.208;10.392;2022-07-18T14:45:41;5.20;;;1.40;;
10900;SDS011;5503;53.208;10.392;2022-07-18T14:48:08;4.57;;;1.40;;
10900;SDS011;5503;53.208;10.392;2022-07-18T14:50:35;3.90;;;1.42;;
10900;SDS011;5503;53.208;10.392;2022-07-18T14:53:02;5.43;;;1.55;;
10900;SDS011;5503;53.208;10.392;2022-07-18T14:55:29;3.78;;;1.30;;
10900;SDS011;5503;53.208;10.392;2022-07-18T14:57:57;4.57;;;1.50;;
10900;SDS011;5503;53.208;10.392;2022-07-18T15:00:26;7.10;;;1.50;;
10900;SDS011;5503;53.208;10.392;2022-07-18T15:02:53;4.32;;;1.23;;
10900;SDS011;5503;53.208;10.392;2022-07-18T15:05:20;4.53;;;1.42;;
10900;SDS011;5503;53.208;10.392;2022-07-18T15:07:47;5.57;;;1.52;;
10900;SDS011;5503;53.208;10.392;2022-07-18T15:10:14;4.15;;;1.40;;